sensor_id;sensor_type;location;lat;lon;timestamp;pressure;altitude;pressure_sealevel;temperature;humidity
79645;BME280;69117;47.148;18.954;2024-01-15T00:01:21;99358.09;;;-1.74;100.00
79645;BME280;69117;47.148;18.954;2024-01-15T00:04:23;99351.63;;;-1.81;100.00
79645;BME280;69117;47.148;18.954;2024-01-15T00:07:25;99338.19;;;-1.88;100.00
79645;BME280;69117;47.148;18.954;2024-01-15T00:10:26;99336.06;;;-1.95;100.00
79645;BME280;69117;47.148;18.954;2024-01-15T00:13:28;99330.44;;;-2.02;100.00
79645;BME280;69117;47.148;18.954;2024-01-15T00:16:30;99315.63;;;-2.14;100.00
79645;BME280;69117;47.148;18.954;2024-01-15T00:19:31;99323.22;;;-2.11;100.00
79645;BME280;69117;47.148;18.954;2024-01-15T00:22:34;99318.88;;;-2.11;100.00
79645;BME280;69117;47.148;18.954;2024-01-15T00:25:37;99318.94;;;-2.12;100.00
79645;BME280;69117;47.148;18.954;2024-01-15T00:28:39;99328.31;;;-1.95;100.00
79645;BME280;69117;47.148;18.954;2024-01-15T00:31:40;99335.34;;;-1.83;100.00
79645;BME280;69117;47.148;18.954;2024-01-15T00:34:42;99323.03;;;-1.79;100.00
79645;BME280;69117;47.148;18.954;2024-01-15T00:37:44;99297.91;;;-1.77;100.00
79645;BME280;69117;47.148;18.954;2024-01-15T00:40:46;99288.13;;;-1.87;100.00
79645;BME280;69117;47.148;18.954;2024-01-15T00:43:47;99283.31;;;-1.93;100.00
79645;BME280;69117;47.148;18.954;2024-01-15T00:46:52;99278.31;;;-2.10;100.00
79645;BME280;69117;47.148;18.954;2024-01-15T00:49:54;99268.31;;;-2.16;100.00
79645;BME280;69117;47.148;18.954;2024-01-15T00:52:56;99254.34;;;-2.28;100.00
79645;BME280;69117;47.148;18.954;2024-01-15T00:55:57;99247.91;;;-2.35;100.00
79645;BME280;69117;47.148;18.954;2024-01-15T00:58:59;99257.88;;;-2.29;100.00
79645;BME280;69117;47.148;18.954;2024-01-15T01:02:01;99261.66;;;-2.35;100.00
79645;BME280;69117;47.148;18.954;2024-01-15T01:05:04;99255.53;;;-2.48;100.00
79645;BME280;69117;47.148;18.954;2024-01-15T01:08:06;99245.75;;;-2.57;100.00
79645;BME280;69117;47.148;18.954;2024-01-15T01:11:07;99230.75;;;-2.66;100.00
79645;BME280;69117;47.148;18.954;2024-01-15T01:14:09;99222.16;;;-2.81;100.00
79645;BME280;69117;47.148;18.954;2024-01-15T01:17:12;99236.25;;;-2.87;100.00
79645;BME280;69117;47.148;18.954;2024-01-15T01:20:14;99230.09;;;-2.70;100.00
79645;BME280;69117;47.148;18.954;2024-01-15T01:23:19;99232.78;;;-2.71;100.00
79645;BME280;69117;47.148;18.954;2024-01-15T01:26:21;99213.28;;;-2.77;100.00
79645;BME280;69117;47.148;18.954;2024-01-15T01:29:23;99217.16;;;-2.70;100.00
79645;BME280;69117;47.148;18.954;2024-01-15T01:32:24;99213.53;;;-2.82;100.00
79645;BME280;69117;47.148;18.954;2024-01-15T01:35:26;99227.75;;;-2.89;100.00
79645;BME280;69117;47.148;18.954;2024-01-15T01:38:27;99200.28;;;-3.06;100.00
79645;BME280;69117;47.148;18.954;2024-01-15T01:41:29;99209.41;;;-3.14;100.00
79645;BME280;69117;47.148;18.954;2024-01-15T01:44:31;99220.28;;;-3.09;100.00
79645;BME280;69117;47.148;18.954;2024-01-15T01:47:33;99219.63;;;-3.13;100.00
79645;BME280;69117;47.148;18.954;2024-01-15T01:50:35;99210.41;;;-3.17;100.00
79645;BME280;69117;47.148;18.954;2024-01-15T01:53:38;99201.41;;;-3.26;100.00
79645;BME280;69117;47.148;18.954;2024-01-15T01:56:41;99199.44;;;-3.06;100.00
79645;BME280;69117;47.148;18.954;2024-01-15T01:59:43;99200.78;;;-2.99;100.00
79645;BME280;69117;47.148;18.954;2024-01-15T02:02:44;99191.81;;;-3.08;100.00
79645;BME280;69117;47.148;18.954;2024-01-15T02:05:48;99171.72;;;-3.18;100.00
79645;BME280;69117;47.148;18.954;2024-01-15T02:08:51;99175.66;;;-3.11;100.00
79645;BME280;69117;47.148;18.954;2024-01-15T02:11:53;99158.66;;;-3.15;100.00
79645;BME280;69117;47.148;18.954;2024-01-15T02:14:55;99171.97;;;-3.07;100.00
79645;BME280;69117;47.148;18.954;2024-01-15T02:17:58;99162.91;;;-3.14;100.00
79645;BME280;69117;47.148;18.954;2024-01-15T02:21:00;99149.66;;;-3.08;100.00
79645;BME280;69117;47.148;18.954;2024-01-15T02:24:01;99152.97;;;-3.06;100.00
79645;BME280;69117;47.148;18.954;2024-01-15T02:27:03;99148.16;;;-3.12;100.00
79645;BME280;69117;47.148;18.954;2024-01-15T02:30:05;99147.50;;;-3.16;100.00
79645;BME280;69117;47.148;18.954;2024-01-15T02:33:09;99138.00;;;-3.15;100.00
79645;BME280;69117;47.148;18.954;2024-01-15T02:36:11;99127.31;;;-3.09;100.00
79645;BME280;69117;47.148;18.954;2024-01-15T02:39:13;99148.72;;;-3.07;100.00
79645;BME280;69117;47.148;18.954;2024-01-15T02:42:15;99136.75;;;-3.08;100.00
79645;BME280;69117;47.148;18.954;2024-01-15T02:45:17;99121.38;;;-3.26;100.00
79645;BME280;69117;47.148;18.954;2024-01-15T02:48:18;99142.38;;;-3.32;100.00
79645;BME280;69117;47.148;18.954;2024-01-15T02:51:20;99143.47;;;-3.36;100.00
79645;BME280;69117;47.148;18.954;2024-01-15T02:54:22;99123.13;;;-3.56;100.00
79645;BME280;69117;47.148;18.954;2024-01-15T02:57:23;99118.81;;;-3.72;100.00
79645;BME280;69117;47.148;18.954;2024-01-15T03:00:25;99103.25;;;-3.86;100.00
79645;BME280;69117;47.148;18.954;2024-01-15T03:03:27;99084.25;;;-3.99;100.00
79645;BME280;69117;47.148;18.954;2024-01-15T03:06:29;99084.38;;;-3.86;100.00
79645;BME280;69117;47.148;18.954;2024-01-15T03:09:30;99082.69;;;-3.87;100.00
79645;BME280;69117;47.148;18.954;2024-01-15T03:12:32;99076.66;;;-4.02;100.00
79645;BME280;69117;47.148;18.954;2024-01-15T03:15:34;99094.19;;;-4.09;100.00
79645;BME280;69117;47.148;18.954;2024-01-15T03:18:36;99098.53;;;-4.25;100.00
79645;BME280;69117;47.148;18.954;2024-01-15T03:21:38;99075.91;;;-4.36;100.00
79645;BME280;69117;47.148;18.954;2024-01-15T03:24:39;99097.44;;;-4.21;100.00
79645;BME280;69117;47.148;18.954;2024-01-15T03:27:41;99098.25;;;-4.21;100.00
79645;BME280;69117;47.148;18.954;2024-01-15T03:30:43;99101.38;;;-4.14;100.00
79645;BME280;69117;47.148;18.954;2024-01-15T03:33:44;99109.50;;;-4.06;100.00
79645;BME280;69117;47.148;18.954;2024-01-15T03:36:46;99116.84;;;-4.14;100.00
79645;BME280;69117;47.148;18.954;2024-01-15T03:39:48;99107.69;;;-4.20;100.00
79645;BME280;69117;47.148;18.954;2024-01-15T03:42:50;99115.66;;;-4.24;100.00
79645;BME280;69117;47.148;18.954;2024-01-15T03:45:52;99101.00;;;-4.24;100.00
79645;BME280;69117;47.148;18.954;2024-01-15T03:48:53;99109.94;;;-4.13;100.00
79645;BME280;69117;47.148;18.954;2024-01-15T03:51:55;99104.53;;;-3.93;100.00
79645;BME280;69117;47.148;18.954;2024-01-15T03:54:57;99095.53;;;-3.86;100.00
79645;BME280;69117;47.148;18.954;2024-01-15T03:57:59;99087.03;;;-3.88;100.00
79645;BME280;69117;47.148;18.954;2024-01-15T04:01:01;99095.94;;;-3.78;100.00
79645;BME280;69117;47.148;18.954;2024-01-15T04:04:03;99104.91;;;-3.69;100.00
79645;BME280;69117;47.148;18.954;2024-01-15T04:07:05;99100.91;;;-3.59;100.00
79645;BME280;69117;47.148;18.954;2024-01-15T04:10:07;99093.22;;;-3.60;100.00
79645;BME280;69117;47.148;18.954;2024-01-15T04:13:09;99098.13;;;-3.56;100.00
79645;BME280;69117;47.148;18.954;2024-01-15T04:16:10;99100.63;;;-3.54;100.00
79645;BME280;69117;47.148;18.954;2024-01-15T04:19:12;99107.75;;;-3.43;100.00
79645;BME280;69117;47.148;18.954;2024-01-15T04:22:14;99093.41;;;-3.33;100.00
79645;BME280;69117;47.148;18.954;2024-01-15T04:25:15;99086.84;;;-3.39;100.00
79645;BME280;69117;47.148;18.954;2024-01-15T04:28:17;99084.31;;;-3.55;100.00
79645;BME280;69117;47.148;18.954;2024-01-15T04:31:25;99053.75;;;-3.77;100.00
79645;BME280;69117;47.148;18.954;2024-01-15T04:34:29;99068.81;;;-3.69;100.00
79645;BME280;69117;47.148;18.954;2024-01-15T04:37:30;99060.91;;;-3.82;100.00
79645;BME280;69117;47.148;18.954;2024-01-15T04:40:32;99075.47;;;-3.81;100.00
79645;BME280;69117;47.148;18.954;2024-01-15T04:43:34;99071.38;;;-3.85;100.00
79645;BME280;69117;47.148;18.954;2024-01-15T04:46:35;99074.56;;;-3.80;100.00
79645;BME280;69117;47.148;18.954;2024-01-15T04:49:37;99079.59;;;-3.78;100.00
79645;BME280;69117;47.148;18.954;2024-01-15T04:52:39;99070.72;;;-3.88;100.00
79645;BME280;69117;47.148;18.954;2024-01-15T04:55:40;99075.66;;;-3.84;100.00
79645;BME280;69117;47.148;18.954;2024-01-15T04:58:42;99092.69;;;-3.81;100.00
79645;BME280;69117;47.148;18.954;2024-01-15T05:01:44;99088.78;;;-3.88;100.00
79645;BME280;69117;47.148;18.954;2024-01-15T05:04:45;99095.22;;;-3.96;100.00
79645;BME280;69117;47.148;18.954;2024-01-15T05:07:47;99088.69;;;-4.03;100.00
79645;BME280;69117;47.148;18.954;2024-01-15T05:10:49;99081.88;;;-3.88;100.00
79645;BME280;69117;47.148;18.954;2024-01-15T05:13:51;99079.63;;;-3.48;100.00
79645;BME280;69117;47.148;18.954;2024-01-15T05:16:53;99072.41;;;-3.57;100.00
79645;BME280;69117;47.148;18.954;2024-01-15T05:19:54;99073.09;;;-3.70;100.00
79645;BME280;69117;47.148;18.954;2024-01-15T05:22:56;99067.16;;;-3.86;100.00
79645;BME280;69117;47.148;18.954;2024-01-15T05:25:58;99079.91;;;-3.99;100.00
79645;BME280;69117;47.148;18.954;2024-01-15T05:29:00;99097.84;;;-3.97;100.00
79645;BME280;69117;47.148;18.954;2024-01-15T05:32:01;99077.91;;;-4.09;100.00
79645;BME280;69117;47.148;18.954;2024-01-15T05:35:03;99077.00;;;-4.24;100.00
79645;BME280;69117;47.148;18.954;2024-01-15T05:38:05;99063.44;;;-4.28;100.00
79645;BME280;69117;47.148;18.954;2024-01-15T05:41:07;99070.41;;;-4.30;100.00
79645;BME280;69117;47.148;18.954;2024-01-15T05:44:09;99090.69;;;-4.24;100.00
79645;BME280;69117;47.148;18.954;2024-01-15T05:47:11;99096.13;;;-4.12;100.00
79645;BME280;69117;47.148;18.954;2024-01-15T05:50:13;99091.63;;;-4.09;100.00
79645;BME280;69117;47.148;18.954;2024-01-15T05:53:14;99085.41;;;-4.05;100.00
79645;BME280;69117;47.148;18.954;2024-01-15T05:56:16;99094.13;;;-3.92;100.00
79645;BME280;69117;47.148;18.954;2024-01-15T05:59:18;99099.75;;;-3.85;100.00
79645;BME280;69117;47.148;18.954;2024-01-15T06:02:20;99071.78;;;-3.77;100.00
79645;BME280;69117;47.148;18.954;2024-01-15T06:05:21;99078.59;;;-3.76;100.00
79645;BME280;69117;47.148;18.954;2024-01-15T06:08:23;99095.47;;;-3.54;100.00
79645;BME280;69117;47.148;18.954;2024-01-15T06:11:29;99089.00;;;-3.61;100.00
79645;BME280;69117;47.148;18.954;2024-01-15T06:14:31;99093.44;;;-3.79;100.00
79645;BME280;69117;47.148;18.954;2024-01-15T06:17:33;99100.75;;;-3.87;100.00
79645;BME280;69117;47.148;18.954;2024-01-15T06:20:35;99068.94;;;-4.02;100.00
79645;BME280;69117;47.148;18.954;2024-01-15T06:23:37;99086.66;;;-3.96;100.00
79645;BME280;69117;47.148;18.954;2024-01-15T06:26:39;99093.94;;;-3.88;100.00
79645;BME280;69117;47.148;18.954;2024-01-15T06:29:44;99090.28;;;-3.84;100.00
79645;BME280;69117;47.148;18.954;2024-01-15T06:32:50;99090.88;;;-3.95;100.00
79645;BME280;69117;47.148;18.954;2024-01-15T06:35:52;99108.00;;;-3.94;100.00
79645;BME280;69117;47.148;18.954;2024-01-15T06:38:54;99109.16;;;-4.00;100.00
79645;BME280;69117;47.148;18.954;2024-01-15T06:41:55;99111.34;;;-4.08;100.00
79645;BME280;69117;47.148;18.954;2024-01-15T06:44:57;99119.97;;;-4.09;100.00
79645;BME280;69117;47.148;18.954;2024-01-15T06:47:59;99119.91;;;-4.07;100.00
79645;BME280;69117;47.148;18.954;2024-01-15T06:51:01;99145.03;;;-3.95;100.00
79645;BME280;69117;47.148;18.954;2024-01-15T06:54:02;99127.03;;;-3.97;100.00
79645;BME280;69117;47.148;18.954;2024-01-15T06:57:04;99145.28;;;-3.84;100.00
79645;BME280;69117;47.148;18.954;2024-01-15T07:00:08;99149.25;;;-3.78;100.00
79645;BME280;69117;47.148;18.954;2024-01-15T07:03:10;99145.13;;;-3.81;100.00
79645;BME280;69117;47.148;18.954;2024-01-15T07:06:12;99153.53;;;-3.77;100.00
79645;BME280;69117;47.148;18.954;2024-01-15T07:09:14;99159.69;;;-3.80;100.00
79645;BME280;69117;47.148;18.954;2024-01-15T07:12:16;99162.59;;;-3.86;100.00
79645;BME280;69117;47.148;18.954;2024-01-15T07:15:18;99170.91;;;-3.81;100.00
79645;BME280;69117;47.148;18.954;2024-01-15T07:18:19;99155.28;;;-3.78;100.00
79645;BME280;69117;47.148;18.954;2024-01-15T07:21:21;99159.09;;;-3.69;100.00
79645;BME280;69117;47.148;18.954;2024-01-15T07:24:23;99164.31;;;-3.71;100.00
79645;BME280;69117;47.148;18.954;2024-01-15T07:27:25;99168.47;;;-3.52;100.00
79645;BME280;69117;47.148;18.954;2024-01-15T07:30:27;99177.75;;;-3.34;100.00
79645;BME280;69117;47.148;18.954;2024-01-15T07:33:29;99180.25;;;-3.16;100.00
79645;BME280;69117;47.148;18.954;2024-01-15T07:36:31;99182.16;;;-2.90;100.00
79645;BME280;69117;47.148;18.954;2024-01-15T07:39:33;99160.31;;;-2.70;100.00
79645;BME280;69117;47.148;18.954;2024-01-15T07:42:36;99182.06;;;-2.29;100.00
79645;BME280;69117;47.148;18.954;2024-01-15T07:45:38;99166.50;;;-2.15;100.00
79645;BME280;69117;47.148;18.954;2024-01-15T07:48:40;99175.41;;;-2.19;100.00
79645;BME280;69117;47.148;18.954;2024-01-15T07:51:42;99182.00;;;-1.87;100.00
79645;BME280;69117;47.148;18.954;2024-01-15T07:54:47;99169.81;;;-1.57;100.00
79645;BME280;69117;47.148;18.954;2024-01-15T07:57:49;99193.31;;;-1.33;100.00
79645;BME280;69117;47.148;18.954;2024-01-15T08:01:03;99187.47;;;-1.50;100.00
79645;BME280;69117;47.148;18.954;2024-01-15T08:04:05;99168.59;;;-1.52;100.00
79645;BME280;69117;47.148;18.954;2024-01-15T08:07:07;99181.63;;;-1.66;100.00
79645;BME280;69117;47.148;18.954;2024-01-15T08:10:09;99173.84;;;-1.66;100.00
79645;BME280;69117;47.148;18.954;2024-01-15T08:13:11;99180.91;;;-1.55;100.00
79645;BME280;69117;47.148;18.954;2024-01-15T08:16:12;99188.28;;;-1.49;100.00
79645;BME280;69117;47.148;18.954;2024-01-15T08:19:14;99186.06;;;-1.41;100.00
79645;BME280;69117;47.148;18.954;2024-01-15T08:22:16;99162.63;;;-1.40;100.00
79645;BME280;69117;47.148;18.954;2024-01-15T08:25:18;99175.69;;;-1.14;100.00
79645;BME280;69117;47.148;18.954;2024-01-15T08:28:19;99169.38;;;-1.10;100.00
79645;BME280;69117;47.148;18.954;2024-01-15T08:31:21;99180.59;;;-0.97;100.00
79645;BME280;69117;47.148;18.954;2024-01-15T08:34:24;99179.06;;;-0.86;100.00
79645;BME280;69117;47.148;18.954;2024-01-15T08:37:29;99186.84;;;-0.74;100.00
79645;BME280;69117;47.148;18.954;2024-01-15T08:40:31;99187.19;;;-0.65;100.00
79645;BME280;69117;47.148;18.954;2024-01-15T08:43:32;99181.38;;;-0.56;100.00
79645;BME280;69117;47.148;18.954;2024-01-15T08:46:34;99180.22;;;-0.52;100.00
79645;BME280;69117;47.148;18.954;2024-01-15T08:49:36;99183.34;;;-0.47;100.00
79645;BME280;69117;47.148;18.954;2024-01-15T08:52:38;99177.44;;;-0.36;100.00
79645;BME280;69117;47.148;18.954;2024-01-15T08:55:40;99171.41;;;-0.24;100.00
79645;BME280;69117;47.148;18.954;2024-01-15T08:58:43;99162.56;;;-0.21;100.00
79645;BME280;69117;47.148;18.954;2024-01-15T09:01:47;99162.78;;;-0.12;100.00
79645;BME280;69117;47.148;18.954;2024-01-15T09:04:49;99157.16;;;-0.06;100.00
79645;BME280;69117;47.148;18.954;2024-01-15T09:07:51;99162.19;;;0.09;100.00
79645;BME280;69117;47.148;18.954;2024-01-15T09:10:53;99169.34;;;0.18;100.00
79645;BME280;69117;47.148;18.954;2024-01-15T09:13:55;99170.69;;;0.23;100.00
79645;BME280;69117;47.148;18.954;2024-01-15T09:16:57;99161.41;;;0.32;100.00
79645;BME280;69117;47.148;18.954;2024-01-15T09:19:59;99177.94;;;0.31;100.00
79645;BME280;69117;47.148;18.954;2024-01-15T09:23:01;99145.97;;;0.18;100.00
79645;BME280;69117;47.148;18.954;2024-01-15T09:26:03;99166.88;;;0.16;100.00
79645;BME280;69117;47.148;18.954;2024-01-15T09:29:04;99163.28;;;0.06;100.00
79645;BME280;69117;47.148;18.954;2024-01-15T09:32:06;99164.59;;;-0.01;100.00
79645;BME280;69117;47.148;18.954;2024-01-15T09:35:08;99154.34;;;0.58;100.00
79645;BME280;69117;47.148;18.954;2024-01-15T09:38:10;99161.41;;;1.16;100.00
79645;BME280;69117;47.148;18.954;2024-01-15T09:41:12;99161.34;;;1.40;100.00
79645;BME280;69117;47.148;18.954;2024-01-15T09:44:13;99158.66;;;1.86;100.00
79645;BME280;69117;47.148;18.954;2024-01-15T09:47:16;99153.06;;;2.13;100.00
79645;BME280;69117;47.148;18.954;2024-01-15T09:50:19;99163.41;;;2.47;100.00
79645;BME280;69117;47.148;18.954;2024-01-15T09:53:22;99160.28;;;2.64;100.00
79645;BME280;69117;47.148;18.954;2024-01-15T09:56:24;99151.44;;;2.88;100.00
79645;BME280;69117;47.148;18.954;2024-01-15T09:59:26;99143.38;;;3.12;100.00
79645;BME280;69117;47.148;18.954;2024-01-15T10:02:30;99155.22;;;3.16;100.00
79645;BME280;69117;47.148;18.954;2024-01-15T10:05:32;99146.47;;;3.27;100.00
79645;BME280;69117;47.148;18.954;2024-01-15T10:08:36;99124.91;;;3.46;100.00
79645;BME280;69117;47.148;18.954;2024-01-15T10:11:38;99133.34;;;3.59;100.00
79645;BME280;69117;47.148;18.954;2024-01-15T10:14:41;99126.59;;;3.56;100.00
79645;BME280;69117;47.148;18.954;2024-01-15T10:17:44;99125.66;;;3.57;100.00
79645;BME280;69117;47.148;18.954;2024-01-15T10:20:46;99115.00;;;3.80;100.00
79645;BME280;69117;47.148;18.954;2024-01-15T10:23:49;99119.91;;;4.04;100.00
79645;BME280;69117;47.148;18.954;2024-01-15T10:26:50;99102.22;;;4.27;100.00
79645;BME280;69117;47.148;18.954;2024-01-15T10:29:52;99104.84;;;4.27;100.00
79645;BME280;69117;47.148;18.954;2024-01-15T10:32:59;99099.50;;;3.88;100.00
79645;BME280;69117;47.148;18.954;2024-01-15T10:36:03;99095.69;;;4.02;100.00
79645;BME280;69117;47.148;18.954;2024-01-15T10:39:13;99088.00;;;4.10;100.00
79645;BME280;69117;47.148;18.954;2024-01-15T10:42:15;99058.56;;;4.08;100.00
79645;BME280;69117;47.148;18.954;2024-01-15T10:45:17;99077.56;;;4.29;100.00
79645;BME280;69117;47.148;18.954;2024-01-15T10:48:19;99078.41;;;4.78;100.00
79645;BME280;69117;47.148;18.954;2024-01-15T10:51:21;99083.94;;;5.32;100.00
79645;BME280;69117;47.148;18.954;2024-01-15T10:54:23;99082.13;;;5.42;100.00
79645;BME280;69117;47.148;18.954;2024-01-15T10:57:26;99064.19;;;5.47;100.00
79645;BME280;69117;47.148;18.954;2024-01-15T11:00:29;99088.69;;;6.57;100.00
79645;BME280;69117;47.148;18.954;2024-01-15T11:03:32;99099.47;;;6.89;100.00
79645;BME280;69117;47.148;18.954;2024-01-15T11:06:45;99084.78;;;6.61;100.00
79645;BME280;69117;47.148;18.954;2024-01-15T11:09:48;99078.34;;;7.17;100.00
79645;BME280;69117;47.148;18.954;2024-01-15T11:12:50;99076.22;;;7.81;100.00
79645;BME280;69117;47.148;18.954;2024-01-15T11:15:56;99061.97;;;8.00;96.58
79645;BME280;69117;47.148;18.954;2024-01-15T11:22:00;99072.94;;;8.46;86.75
79645;BME280;69117;47.148;18.954;2024-01-15T11:25:12;99068.38;;;8.81;85.02
79645;BME280;69117;47.148;18.954;2024-01-15T11:28:46;99072.78;;;8.56;83.32
79645;BME280;69117;47.148;18.954;2024-01-15T11:37:59;99044.00;;;8.87;75.73
79645;BME280;69117;47.148;18.954;2024-01-15T11:41:13;99042.53;;;9.56;72.26
79645;BME280;69117;47.148;18.954;2024-01-15T11:44:16;99046.28;;;8.98;69.56
79645;BME280;69117;47.148;18.954;2024-01-15T11:50:55;99020.63;;;8.67;72.38
79645;BME280;69117;47.148;18.954;2024-01-15T11:53:59;99029.53;;;8.66;71.71
79645;BME280;69117;47.148;18.954;2024-01-15T11:57:09;99045.81;;;8.70;73.99
79645;BME280;69117;47.148;18.954;2024-01-15T12:00:12;99020.28;;;9.11;67.66
79645;BME280;69117;47.148;18.954;2024-01-15T12:03:15;99013.75;;;8.75;66.43
79645;BME280;69117;47.148;18.954;2024-01-15T12:06:16;98997.63;;;8.69;67.64
79645;BME280;69117;47.148;18.954;2024-01-15T12:09:21;99001.91;;;8.54;68.97
79645;BME280;69117;47.148;18.954;2024-01-15T12:12:39;98999.41;;;8.53;66.74
79645;BME280;69117;47.148;18.954;2024-01-15T12:15:46;98995.97;;;8.52;67.55
79645;BME280;69117;47.148;18.954;2024-01-15T12:18:50;98984.78;;;8.66;65.91
79645;BME280;69117;47.148;18.954;2024-01-15T12:21:52;99009.09;;;8.36;67.98
79645;BME280;69117;47.148;18.954;2024-01-15T12:24:54;98987.56;;;8.24;69.69
79645;BME280;69117;47.148;18.954;2024-01-15T12:27:56;98983.66;;;8.44;69.19
79645;BME280;69117;47.148;18.954;2024-01-15T12:30:58;98988.84;;;9.49;64.90
79645;BME280;69117;47.148;18.954;2024-01-15T12:34:02;98990.78;;;9.55;63.23
79645;BME280;69117;47.148;18.954;2024-01-15T12:37:04;98996.03;;;9.16;63.57
79645;BME280;69117;47.148;18.954;2024-01-15T12:40:07;98990.69;;;9.40;63.51
79645;BME280;69117;47.148;18.954;2024-01-15T12:43:10;98994.66;;;9.36;63.18
79645;BME280;69117;47.148;18.954;2024-01-15T12:46:11;98997.78;;;9.71;60.41
79645;BME280;69117;47.148;18.954;2024-01-15T12:49:16;98990.88;;;9.70;59.28
79645;BME280;69117;47.148;18.954;2024-01-15T12:52:18;98993.13;;;8.86;61.64
79645;BME280;69117;47.148;18.954;2024-01-15T12:55:20;98987.63;;;9.21;59.78
79645;BME280;69117;47.148;18.954;2024-01-15T12:58:23;98991.97;;;9.84;58.14
79645;BME280;69117;47.148;18.954;2024-01-15T13:01:25;98997.81;;;10.02;57.34
79645;BME280;69117;47.148;18.954;2024-01-15T13:04:27;98995.97;;;8.60;61.28
79645;BME280;69117;47.148;18.954;2024-01-15T13:07:29;98972.69;;;6.45;76.84
79645;BME280;69117;47.148;18.954;2024-01-15T13:10:31;98991.75;;;6.11;83.45
79645;BME280;69117;47.148;18.954;2024-01-15T13:13:33;98987.69;;;5.71;91.41
79645;BME280;69117;47.148;18.954;2024-01-15T13:16:35;98978.91;;;5.45;91.13
79645;BME280;69117;47.148;18.954;2024-01-15T13:19:37;98987.34;;;5.39;93.91
79645;BME280;69117;47.148;18.954;2024-01-15T13:22:39;98981.34;;;5.19;95.68
79645;BME280;69117;47.148;18.954;2024-01-15T13:25:42;98984.63;;;4.93;99.32
79645;BME280;69117;47.148;18.954;2024-01-15T13:28:44;98982.72;;;4.76;100.00
79645;BME280;69117;47.148;18.954;2024-01-15T13:31:45;98977.09;;;4.71;100.00
79645;BME280;69117;47.148;18.954;2024-01-15T13:34:48;98979.00;;;4.69;100.00
79645;BME280;69117;47.148;18.954;2024-01-15T13:37:50;99001.03;;;4.76;100.00
79645;BME280;69117;47.148;18.954;2024-01-15T13:40:52;98986.41;;;4.83;100.00
79645;BME280;69117;47.148;18.954;2024-01-15T13:43:54;98976.69;;;4.75;100.00
79645;BME280;69117;47.148;18.954;2024-01-15T13:46:56;98977.25;;;4.69;100.00
79645;BME280;69117;47.148;18.954;2024-01-15T13:49:58;98970.34;;;4.68;100.00
79645;BME280;69117;47.148;18.954;2024-01-15T13:53:00;98949.72;;;4.65;100.00
79645;BME280;69117;47.148;18.954;2024-01-15T13:56:02;98940.72;;;4.77;100.00
79645;BME280;69117;47.148;18.954;2024-01-15T13:59:04;98959.06;;;4.68;100.00
79645;BME280;69117;47.148;18.954;2024-01-15T14:02:12;98953.16;;;4.56;100.00
79645;BME280;69117;47.148;18.954;2024-01-15T14:05:20;98946.03;;;4.39;100.00
79645;BME280;69117;47.148;18.954;2024-01-15T14:08:22;98941.66;;;4.20;100.00
79645;BME280;69117;47.148;18.954;2024-01-15T14:11:24;98927.78;;;4.09;100.00
79645;BME280;69117;47.148;18.954;2024-01-15T14:14:26;98932.59;;;4.14;100.00
79645;BME280;69117;47.148;18.954;2024-01-15T14:17:28;98934.25;;;4.15;100.00
79645;BME280;69117;47.148;18.954;2024-01-15T14:20:29;98944.97;;;4.22;100.00
79645;BME280;69117;47.148;18.954;2024-01-15T14:23:32;98945.53;;;4.16;100.00
79645;BME280;69117;47.148;18.954;2024-01-15T14:26:34;98951.31;;;4.09;100.00
79645;BME280;69117;47.148;18.954;2024-01-15T14:29:36;98940.16;;;3.98;100.00
79645;BME280;69117;47.148;18.954;2024-01-15T14:32:38;98950.47;;;3.99;100.00
79645;BME280;69117;47.148;18.954;2024-01-15T14:35:40;98967.00;;;4.00;100.00
79645;BME280;69117;47.148;18.954;2024-01-15T14:38:42;98979.34;;;4.07;100.00
79645;BME280;69117;47.148;18.954;2024-01-15T14:41:43;98988.41;;;3.84;100.00
79645;BME280;69117;47.148;18.954;2024-01-15T14:44:45;98993.59;;;3.64;100.00
79645;BME280;69117;47.148;18.954;2024-01-15T14:47:46;98966.94;;;3.51;100.00
79645;BME280;69117;47.148;18.954;2024-01-15T14:50:48;98981.88;;;3.49;100.00
79645;BME280;69117;47.148;18.954;2024-01-15T14:53:52;98977.50;;;3.59;100.00
79645;BME280;69117;47.148;18.954;2024-01-15T14:56:53;98966.75;;;3.43;100.00
79645;BME280;69117;47.148;18.954;2024-01-15T14:59:56;98980.91;;;3.40;100.00
79645;BME280;69117;47.148;18.954;2024-01-15T15:02:57;98983.34;;;3.32;100.00
79645;BME280;69117;47.148;18.954;2024-01-15T15:05:59;98962.69;;;3.19;100.00
79645;BME280;69117;47.148;18.954;2024-01-15T15:09:01;98973.56;;;3.25;100.00
79645;BME280;69117;47.148;18.954;2024-01-15T15:12:04;98971.72;;;3.06;100.00
79645;BME280;69117;47.148;18.954;2024-01-15T15:15:07;98958.00;;;3.13;100.00
79645;BME280;69117;47.148;18.954;2024-01-15T15:18:13;98962.53;;;3.11;100.00
79645;BME280;69117;47.148;18.954;2024-01-15T15:21:14;98972.91;;;3.02;100.00
79645;BME280;69117;47.148;18.954;2024-01-15T15:24:16;98988.72;;;3.00;100.00
79645;BME280;69117;47.148;18.954;2024-01-15T15:27:18;98998.66;;;3.16;100.00
79645;BME280;69117;47.148;18.954;2024-01-15T15:30:20;99016.97;;;3.26;100.00
79645;BME280;69117;47.148;18.954;2024-01-15T15:33:21;99026.09;;;3.41;100.00
79645;BME280;69117;47.148;18.954;2024-01-15T15:36:23;99001.47;;;3.24;100.00
79645;BME280;69117;47.148;18.954;2024-01-15T15:39:25;99003.88;;;3.16;100.00
79645;BME280;69117;47.148;18.954;2024-01-15T15:42:27;99008.34;;;3.04;100.00
79645;BME280;69117;47.148;18.954;2024-01-15T15:45:29;99027.25;;;2.96;100.00
79645;BME280;69117;47.148;18.954;2024-01-15T15:48:31;99035.59;;;2.90;100.00
79645;BME280;69117;47.148;18.954;2024-01-15T15:51:33;99039.31;;;2.88;100.00
79645;BME280;69117;47.148;18.954;2024-01-15T15:54:37;99029.00;;;2.86;100.00
79645;BME280;69117;47.148;18.954;2024-01-15T15:57:39;99029.91;;;2.75;100.00
79645;BME280;69117;47.148;18.954;2024-01-15T16:00:40;99012.94;;;2.28;100.00